createdAt,value
2018-06-15T00:00:07.542Z,11.00
2018-06-15T00:02:35.859Z,11.20
2018-06-15T00:05:04.325Z,12.45
2018-06-15T00:07:31.907Z,10.05
2018-06-15T00:10:00.291Z,12.03
2018-06-15T00:12:28.089Z,12.15
2018-06-15T00:14:55.865Z,9.65
2018-06-15T00:17:23.454Z,10.43
2018-06-15T00:19:51.038Z,10.72
2018-06-15T00:22:18.590Z,10.63
2018-06-15T00:24:46.214Z,12.55
2018-06-15T00:27:13.803Z,9.97
2018-06-15T00:29:41.350Z,9.63
2018-06-15T00:32:08.906Z,9.95
2018-06-15T00:34:36.498Z,11.88
2018-06-15T00:37:04.088Z,10.57
2018-06-15T00:39:31.650Z,14.73
2018-06-15T00:41:59.238Z,11.67
2018-06-15T00:44:26.831Z,10.10
2018-06-15T00:46:54.405Z,12.13
2018-06-15T00:49:21.951Z,11.43
2018-06-15T00:51:49.518Z,12.80
2018-06-15T00:54:17.090Z,11.73
2018-06-15T00:56:50.154Z,11.55
2018-06-15T00:59:17.714Z,14.58
2018-06-15T01:01:45.532Z,12.18
2018-06-15T01:04:13.080Z,10.63
2018-06-15T01:06:40.728Z,11.27
2018-06-15T01:09:08.854Z,11.40
2018-06-15T01:11:36.478Z,11.60
2018-06-15T01:14:04.047Z,12.28
2018-06-15T01:16:31.619Z,12.10
2018-06-15T01:18:59.270Z,11.40
2018-06-15T01:21:26.818Z,12.57
2018-06-15T01:23:54.426Z,11.77
2018-06-15T01:26:21.986Z,13.60
2018-06-15T01:28:49.534Z,16.37
2018-06-15T01:31:17.103Z,14.15
2018-06-15T01:33:44.675Z,12.85
2018-06-15T01:36:12.238Z,14.13
2018-06-15T01:38:39.831Z,16.57
2018-06-15T01:41:07.450Z,13.10
2018-06-15T01:43:35.022Z,14.30
2018-06-15T01:46:02.589Z,13.90
2018-06-15T01:48:30.166Z,13.07
2018-06-15T01:50:57.761Z,13.43
2018-06-15T01:53:25.314Z,17.77
2018-06-15T01:55:52.938Z,15.63
2018-06-15T01:58:20.506Z,16.27
2018-06-15T02:00:48.102Z,13.97
2018-06-15T02:03:15.674Z,14.93
2018-06-15T02:05:43.256Z,17.67
2018-06-15T02:08:10.830Z,15.83
2018-06-15T02:10:38.401Z,15.20
2018-06-15T02:13:06.010Z,14.70
2018-06-15T02:15:33.586Z,14.57
2018-06-15T02:18:01.146Z,15.63
2018-06-15T02:20:29.039Z,15.23
2018-06-15T02:22:56.686Z,15.27
2018-06-15T02:25:24.247Z,15.47
2018-06-15T02:27:51.802Z,15.73
2018-06-15T02:30:19.381Z,15.30
2018-06-15T02:32:47.123Z,21.27
2018-06-15T02:35:14.689Z,15.65
2018-06-15T02:37:42.454Z,15.40
2018-06-15T02:40:10.052Z,17.23
2018-06-15T02:42:38.397Z,16.55
2018-06-15T02:45:05.998Z,15.67
2018-06-15T02:47:33.567Z,15.60
2018-06-15T02:50:01.126Z,18.13
2018-06-15T02:52:28.686Z,17.40
2018-06-15T02:54:56.275Z,15.40
2018-06-15T02:57:23.878Z,19.33
2018-06-15T02:59:51.452Z,15.70
2018-06-15T03:02:19.030Z,14.63
2018-06-15T03:04:46.612Z,16.43
2018-06-15T03:07:14.198Z,14.23
2018-06-15T03:09:41.800Z,16.90
2018-06-15T03:12:09.374Z,16.67
2018-06-15T03:14:36.979Z,15.90
2018-06-15T03:17:04.539Z,18.17
2018-06-15T03:19:32.169Z,16.13
2018-06-15T03:21:59.724Z,15.40
2018-06-15T03:24:27.294Z,19.15
2018-06-15T03:26:55.158Z,15.20
2018-06-15T03:29:22.746Z,16.37
2018-06-15T03:31:50.319Z,17.40
2018-06-15T03:34:17.937Z,15.63
2018-06-15T03:36:45.510Z,14.20
2018-06-15T03:39:13.077Z,16.50
2018-06-15T03:41:41.024Z,14.28
2018-06-15T03:44:08.781Z,13.37
2018-06-15T03:46:37.358Z,13.45
2018-06-15T03:49:04.952Z,13.05
2018-06-15T03:51:32.570Z,12.47
2018-06-15T03:54:00.165Z,16.65
2018-06-15T03:56:27.738Z,13.30
2018-06-15T03:58:55.343Z,11.83
2018-06-15T04:01:22.921Z,13.10
2018-06-15T04:03:50.563Z,11.45
2018-06-15T04:06:18.127Z,14.90
2018-06-15T04:08:45.686Z,11.20
2018-06-15T04:11:13.269Z,13.90
2018-06-15T04:13:40.859Z,10.18
2018-06-15T04:16:08.626Z,9.78
2018-06-15T04:18:36.186Z,11.15
2018-06-15T04:21:03.789Z,9.98
2018-06-15T04:23:31.362Z,12.65
2018-06-15T04:25:59.068Z,8.93
2018-06-15T04:28:26.734Z,10.03
2018-06-15T04:30:54.314Z,9.48
2018-06-15T04:33:21.906Z,8.73
2018-06-15T04:35:49.466Z,10.43
2018-06-15T04:38:17.013Z,9.93
2018-06-15T04:40:44.607Z,11.48
2018-06-15T04:43:12.175Z,10.75
2018-06-15T04:45:39.751Z,11.28
2018-06-15T04:48:07.354Z,8.00
2018-06-15T04:50:34.911Z,9.48
2018-06-15T04:53:02.482Z,10.15
2018-06-15T04:55:30.031Z,9.90
2018-06-15T04:57:57.594Z,7.90
2018-06-15T05:00:25.154Z,10.70
2018-06-15T05:02:52.707Z,8.23
2018-06-15T05:05:20.303Z,10.03
2018-06-15T05:07:47.879Z,8.48
2018-06-15T05:10:15.450Z,8.00
2018-06-15T05:12:43.042Z,7.75
2018-06-15T05:15:10.671Z,9.75
2018-06-15T05:17:38.217Z,8.00
2018-06-15T05:20:05.834Z,8.53
2018-06-15T05:22:33.498Z,15.03
2018-06-15T05:25:01.070Z,10.50
2018-06-15T05:27:29.072Z,7.10
2018-06-15T05:29:56.646Z,8.00
2018-06-15T05:32:24.609Z,6.15
2018-06-15T05:34:52.173Z,9.30
2018-06-15T05:37:20.132Z,6.90
2018-06-15T05:39:48.201Z,6.28
2018-06-15T05:42:15.782Z,9.00
2018-06-15T05:44:43.379Z,10.20
2018-06-15T05:47:10.974Z,12.63
2018-06-15T05:49:38.541Z,8.43
2018-06-15T05:52:07.094Z,10.28
2018-06-15T05:54:34.648Z,9.35
2018-06-15T05:57:02.212Z,8.95
2018-06-15T05:59:29.807Z,9.33
2018-06-15T06:01:57.384Z,10.08
2018-06-15T06:04:25.090Z,11.43
2018-06-15T06:06:52.654Z,12.88
2018-06-15T06:09:20.234Z,11.20
2018-06-15T06:11:47.799Z,14.75
2018-06-15T06:14:15.835Z,19.70
2018-06-15T06:16:43.753Z,12.25
2018-06-15T06:19:11.323Z,10.20
2018-06-15T06:21:38.918Z,9.95
2018-06-15T06:24:06.478Z,10.38
2018-06-15T06:26:34.059Z,13.43
2018-06-15T06:29:01.610Z,14.55
2018-06-15T06:31:29.178Z,11.25
2018-06-15T06:33:56.718Z,6.85
2018-06-15T06:36:24.278Z,7.70
2018-06-15T06:38:51.887Z,11.80
2018-06-15T06:41:19.506Z,10.35
2018-06-15T06:43:47.132Z,7.70
2018-06-15T06:46:14.704Z,13.40
2018-06-15T06:48:42.280Z,12.00
2018-06-15T06:51:09.838Z,9.75
2018-06-15T06:53:37.439Z,7.67
2018-06-15T06:56:05.031Z,7.45
2018-06-15T06:58:32.585Z,7.28
2018-06-15T07:01:00.192Z,6.67
2018-06-15T07:03:27.780Z,9.63
2018-06-15T07:05:55.446Z,7.90
2018-06-15T07:08:23.015Z,5.60
2018-06-15T07:10:50.602Z,5.67
2018-06-15T07:13:18.171Z,7.05
2018-06-15T07:15:45.758Z,10.05
2018-06-15T07:18:13.314Z,6.35
2018-06-15T07:20:40.887Z,5.78
2018-06-15T07:23:08.478Z,7.70
2018-06-15T07:25:36.056Z,6.85
2018-06-15T07:28:03.618Z,7.60
2018-06-15T07:30:31.179Z,6.42
2018-06-15T07:32:58.982Z,5.05
2018-06-15T07:35:26.699Z,9.03
2018-06-15T07:37:54.797Z,8.33
2018-06-15T07:40:22.679Z,4.83
2018-06-15T07:42:50.438Z,6.25
2018-06-15T07:45:18.361Z,8.93
2018-06-15T07:47:45.927Z,6.45
2018-06-15T07:50:13.517Z,8.53
2018-06-15T07:52:41.110Z,5.62
2018-06-15T07:55:08.697Z,9.78
2018-06-15T07:57:36.269Z,9.93
2018-06-15T08:00:03.839Z,8.50
2018-06-15T08:02:31.426Z,7.25
2018-06-15T08:04:59.002Z,5.67
2018-06-15T08:07:26.777Z,7.08
2018-06-15T08:09:54.339Z,7.72
2018-06-15T08:12:21.923Z,5.70
2018-06-15T08:14:49.487Z,6.28
2018-06-15T08:17:17.067Z,6.00
2018-06-15T08:19:44.638Z,8.10
2018-06-15T08:22:12.208Z,5.55
2018-06-15T08:24:39.786Z,5.08
2018-06-15T08:27:07.355Z,6.08
2018-06-15T08:29:34.943Z,6.08
2018-06-15T08:32:03.436Z,7.65
2018-06-15T08:34:31.195Z,8.70
2018-06-15T08:36:59.575Z,4.67
2018-06-15T08:39:27.170Z,6.95
2018-06-15T08:41:54.717Z,6.20
2018-06-15T08:44:22.289Z,5.55
2018-06-15T08:46:49.866Z,4.87
2018-06-15T08:49:17.458Z,7.00
2018-06-15T08:51:45.031Z,6.12
2018-06-15T08:54:12.594Z,6.37
2018-06-15T08:56:40.166Z,5.35
2018-06-15T08:59:07.743Z,8.80
2018-06-15T09:01:35.306Z,6.17
2018-06-15T09:04:03.141Z,20.65
2018-06-15T09:06:30.950Z,10.48
2018-06-15T09:08:58.534Z,6.40
2018-06-15T09:11:26.130Z,13.43
2018-06-15T09:13:53.698Z,7.25
2018-06-15T09:16:21.282Z,15.43
2018-06-15T09:18:48.844Z,9.98
2018-06-15T09:21:16.430Z,11.18
2018-06-15T09:23:44.050Z,10.25
2018-06-15T09:26:11.654Z,7.85
2018-06-15T09:28:39.687Z,7.00
2018-06-15T09:31:07.259Z,8.05
2018-06-15T09:33:34.821Z,7.17
2018-06-15T09:36:02.395Z,7.03
2018-06-15T09:38:29.955Z,7.28
2018-06-15T09:40:57.559Z,6.03
2018-06-15T09:43:25.147Z,5.62
2018-06-15T09:45:52.706Z,5.08
2018-06-15T09:48:20.263Z,7.40
2018-06-15T09:50:47.814Z,5.80
2018-06-15T09:53:15.370Z,5.70
2018-06-15T09:55:42.942Z,5.58
2018-06-15T09:58:10.491Z,6.60
2018-06-15T10:00:43.316Z,4.33
2018-06-15T10:03:10.927Z,5.80
2018-06-15T10:05:38.486Z,6.92
2018-06-15T10:08:06.079Z,6.65
2018-06-15T10:10:33.650Z,6.20
2018-06-15T10:13:01.250Z,5.40
2018-06-15T10:15:29.236Z,5.40
2018-06-15T10:17:56.916Z,4.28
2018-06-15T10:20:24.499Z,5.25
2018-06-15T10:22:52.079Z,7.10
2018-06-15T10:25:19.643Z,4.20
2018-06-15T10:27:47.210Z,6.35
2018-06-15T10:30:14.754Z,5.40
2018-06-15T10:32:42.365Z,6.05
2018-06-15T10:35:09.916Z,7.22
2018-06-15T10:37:37.489Z,4.42
2018-06-15T10:40:05.071Z,5.37
2018-06-15T10:42:32.645Z,4.30
2018-06-15T10:45:00.198Z,7.30
2018-06-15T10:47:27.762Z,5.42
2018-06-15T10:49:55.520Z,5.10
2018-06-15T10:52:23.119Z,4.30
2018-06-15T10:54:50.666Z,4.30
2018-06-15T10:57:18.274Z,6.05
2018-06-15T10:59:48.701Z,6.08
2018-06-15T11:02:17.767Z,5.40
2018-06-15T11:04:46.830Z,6.00
2018-06-15T11:07:14.748Z,5.85
2018-06-15T11:09:42.821Z,7.70
2018-06-15T11:12:10.386Z,6.28
2018-06-15T11:14:37.985Z,7.85
2018-06-15T11:17:05.578Z,5.92
2018-06-15T11:19:33.142Z,4.87
2018-06-15T11:22:00.759Z,4.97
2018-06-15T11:24:28.704Z,4.78
2018-06-15T11:26:56.542Z,4.70
2018-06-15T11:29:24.126Z,6.92
2018-06-15T11:31:51.675Z,5.03
2018-06-15T11:34:19.245Z,4.55
2018-06-15T11:36:46.798Z,5.33
2018-06-15T11:39:14.364Z,6.40
2018-06-15T11:41:41.922Z,4.90
2018-06-15T11:44:09.503Z,5.20
2018-06-15T11:46:37.038Z,4.75
2018-06-15T11:49:04.620Z,5.08
2018-06-15T11:51:32.194Z,4.85
2018-06-15T11:53:59.780Z,6.92
2018-06-15T11:56:27.582Z,5.83
2018-06-15T11:58:55.912Z,6.22
2018-06-15T12:01:23.727Z,4.03
2018-06-15T12:03:51.799Z,4.00
2018-06-15T12:06:19.517Z,6.08
2018-06-15T12:08:47.452Z,6.15
2018-06-15T12:11:15.399Z,6.08
2018-06-15T12:13:42.950Z,6.28
2018-06-15T12:16:10.555Z,8.45
2018-06-15T12:18:38.126Z,5.05
2018-06-15T12:21:05.732Z,7.00
2018-06-15T12:23:33.295Z,4.95
2018-06-15T12:26:00.840Z,5.05
2018-06-15T12:28:29.449Z,4.92
2018-06-15T12:30:57.150Z,4.47
2018-06-15T12:33:24.714Z,4.42
2018-06-15T12:35:52.739Z,5.75
2018-06-15T12:38:20.830Z,4.33
2018-06-15T12:40:48.397Z,5.35
2018-06-15T12:43:15.986Z,4.62
2018-06-15T12:45:43.607Z,4.08
2018-06-15T12:48:11.219Z,7.37
2018-06-15T12:50:38.778Z,4.72
2018-06-15T12:53:06.334Z,6.90
2018-06-15T12:55:33.887Z,6.37
2018-06-15T12:58:01.498Z,3.92
2018-06-15T13:00:29.056Z,3.87
2018-06-15T13:02:56.661Z,6.62
2018-06-15T13:05:24.275Z,4.33
2018-06-15T13:07:51.854Z,5.10
2018-06-15T13:10:19.408Z,4.20
2018-06-15T13:12:46.967Z,5.15
2018-06-15T13:15:14.531Z,4.50
2018-06-15T13:17:42.098Z,7.45
2018-06-15T13:20:09.654Z,3.80
2018-06-15T13:22:37.263Z,3.85
2018-06-15T13:25:04.806Z,5.67
2018-06-15T13:27:32.462Z,5.75
2018-06-15T13:30:00.294Z,3.70
2018-06-15T13:32:27.846Z,3.83
2018-06-15T13:34:55.558Z,5.87
2018-06-15T13:37:23.111Z,7.42
2018-06-15T13:39:50.662Z,5.72
2018-06-15T13:42:18.240Z,4.67
2018-06-15T13:44:45.794Z,4.67
2018-06-15T13:47:13.363Z,4.47
2018-06-15T13:49:40.918Z,5.17
2018-06-15T13:52:08.469Z,4.20
2018-06-15T13:54:36.022Z,8.80
2018-06-15T13:57:03.578Z,6.95
2018-06-15T13:59:31.198Z,5.40
2018-06-15T14:01:58.779Z,3.90
2018-06-15T14:04:26.394Z,6.95
2018-06-15T14:06:53.961Z,7.87
2018-06-15T14:09:26.680Z,5.50
2018-06-15T14:11:54.318Z,5.62
2018-06-15T14:14:21.902Z,3.95
2018-06-15T14:16:49.471Z,6.40
2018-06-15T14:19:17.062Z,7.25
2018-06-15T14:21:44.634Z,7.95
2018-06-15T14:24:12.248Z,5.33
2018-06-15T14:26:39.818Z,6.53
2018-06-15T14:29:07.360Z,4.15
2018-06-15T14:31:34.970Z,4.78
2018-06-15T14:34:02.562Z,6.15
2018-06-15T14:36:30.235Z,5.40
2018-06-15T14:38:57.806Z,4.47
2018-06-15T14:41:25.578Z,5.20
2018-06-15T14:43:53.246Z,4.30
2018-06-15T14:46:21.003Z,6.85
2018-06-15T14:48:48.627Z,8.33
2018-06-15T14:51:16.215Z,4.95
2018-06-15T14:53:43.795Z,5.97
2018-06-15T14:56:11.350Z,8.63
2018-06-15T14:58:38.923Z,6.25
2018-06-15T15:01:06.486Z,5.70
2018-06-15T15:03:34.090Z,13.03
2018-06-15T15:06:01.679Z,8.10
2018-06-15T15:08:29.342Z,12.98
2018-06-15T15:10:57.091Z,15.23
2018-06-15T15:13:24.663Z,11.30
2018-06-15T15:15:52.247Z,6.87
2018-06-15T15:18:20.496Z,6.25
2018-06-15T15:20:48.101Z,9.30
2018-06-15T15:23:15.720Z,4.30
2018-06-15T15:25:43.361Z,9.23
2018-06-15T15:28:10.930Z,6.10
2018-06-15T15:30:38.529Z,10.55
2018-06-15T15:33:06.157Z,6.80
2018-06-15T15:35:33.739Z,7.65
2018-06-15T15:38:01.354Z,10.82
2018-06-15T15:40:29.030Z,4.80
2018-06-15T15:42:56.955Z,8.43
2018-06-15T15:45:24.631Z,9.45
2018-06-15T15:47:52.254Z,7.12
2018-06-15T15:50:19.933Z,4.75
2018-06-15T15:52:47.590Z,3.50
2018-06-15T15:55:15.170Z,4.75
2018-06-15T15:57:42.817Z,7.00
2018-06-15T16:00:10.438Z,7.37
2018-06-15T16:02:38.512Z,9.28
2018-06-15T16:05:06.584Z,7.90
2018-06-15T16:07:34.177Z,5.53
2018-06-15T16:10:01.838Z,5.00
2018-06-15T16:12:29.878Z,4.08
2018-06-15T16:14:57.466Z,5.08
2018-06-15T16:17:25.039Z,4.80
2018-06-15T16:19:52.864Z,4.20
2018-06-15T16:22:20.779Z,6.08
2018-06-15T16:24:48.674Z,5.92
2018-06-15T16:27:16.522Z,8.10
2018-06-15T16:29:44.059Z,6.30
2018-06-15T16:32:11.618Z,4.10
2018-06-15T16:34:39.163Z,5.17
2018-06-15T16:37:06.712Z,9.73
2018-06-15T16:39:34.298Z,6.87
2018-06-15T16:42:01.885Z,8.63
2018-06-15T16:44:29.451Z,6.50
2018-06-15T16:46:57.040Z,5.70
2018-06-15T16:49:24.621Z,6.47
2018-06-15T16:51:52.186Z,7.17
2018-06-15T16:54:19.742Z,6.37
2018-06-15T16:56:47.326Z,5.42
2018-06-15T16:59:14.891Z,6.87
2018-06-15T17:01:42.692Z,8.35
2018-06-15T17:04:10.270Z,7.17
2018-06-15T17:06:38.549Z,7.70
2018-06-15T17:09:06.801Z,5.45
2018-06-15T17:11:34.394Z,7.03
2018-06-15T17:14:01.992Z,6.97
2018-06-15T17:16:29.942Z,8.08
2018-06-15T17:18:57.549Z,6.30
2018-06-15T17:21:25.166Z,8.80
2018-06-15T17:23:52.731Z,6.47
2018-06-15T17:26:20.350Z,4.03
2018-06-15T17:28:48.021Z,6.03
2018-06-15T17:31:15.642Z,7.30
2018-06-15T17:33:43.266Z,5.30
2018-06-15T17:36:10.839Z,5.58
2018-06-15T17:38:38.383Z,6.30
2018-06-15T17:41:05.992Z,7.12
2018-06-15T17:43:33.561Z,9.10
2018-06-15T17:46:01.122Z,6.60
2018-06-15T17:48:29.051Z,6.67
2018-06-15T17:50:56.751Z,9.23
2018-06-15T17:53:24.417Z,5.85
2018-06-15T17:55:52.028Z,8.43
2018-06-15T17:58:19.588Z,9.78
2018-06-15T18:00:47.196Z,8.40
2018-06-15T18:03:14.770Z,7.58
2018-06-15T18:05:42.331Z,7.37
2018-06-15T18:08:09.899Z,8.55
2018-06-15T18:10:37.564Z,9.45
2018-06-15T18:13:05.170Z,6.90
2018-06-15T18:15:32.740Z,9.08
2018-06-15T18:18:00.524Z,10.13
2018-06-15T18:20:28.127Z,6.60
2018-06-15T18:22:55.962Z,10.43
2018-06-15T18:25:23.523Z,9.23
2018-06-15T18:27:51.106Z,6.55
2018-06-15T18:30:18.695Z,7.60
2018-06-15T18:32:46.274Z,11.95
2018-06-15T18:35:13.873Z,8.50
2018-06-15T18:37:41.466Z,9.58
2018-06-15T18:40:09.089Z,10.03
2018-06-15T18:42:36.659Z,8.15
2018-06-15T18:45:04.354Z,7.90
2018-06-15T18:47:32.235Z,9.90
2018-06-15T18:49:59.930Z,7.72
2018-06-15T18:52:27.472Z,8.43
2018-06-15T18:54:55.032Z,7.72
2018-06-15T18:57:22.605Z,9.20
2018-06-15T18:59:50.206Z,6.85
2018-06-15T19:02:17.773Z,8.35
2018-06-15T19:04:45.326Z,8.15
2018-06-15T19:07:12.899Z,9.78
2018-06-15T19:09:40.500Z,9.13
2018-06-15T19:12:08.111Z,9.73
2018-06-15T19:14:35.686Z,11.40
2018-06-15T19:17:03.286Z,12.63
2018-06-15T19:19:30.886Z,17.42
2018-06-15T19:21:58.486Z,12.70
2018-06-15T19:24:26.076Z,15.00
2018-06-15T19:26:53.703Z,10.82
2018-06-15T19:29:21.310Z,11.10
2018-06-15T19:31:48.883Z,14.60
2018-06-15T19:34:16.499Z,12.03
2018-06-15T19:36:44.100Z,12.28
2018-06-15T19:39:11.678Z,10.63
2018-06-15T19:41:39.342Z,9.10
2018-06-15T19:44:06.974Z,12.30
2018-06-15T19:46:34.655Z,12.93
2018-06-15T19:49:02.253Z,13.95
2018-06-15T19:51:29.901Z,13.58
2018-06-15T19:53:57.479Z,13.22
2018-06-15T19:56:25.098Z,11.30
2018-06-15T19:58:52.708Z,14.28
2018-06-15T20:01:20.624Z,12.25
2018-06-15T20:03:48.214Z,11.50
2018-06-15T20:06:15.916Z,13.55
2018-06-15T20:08:43.558Z,12.53
2018-06-15T20:11:11.138Z,16.62
2018-06-15T20:13:38.710Z,12.18
2018-06-15T20:16:06.302Z,13.98
2018-06-15T20:18:33.908Z,14.93
2018-06-15T20:21:01.496Z,14.90
2018-06-15T20:23:29.088Z,17.87
2018-06-15T20:25:56.810Z,13.98
2018-06-15T20:28:24.378Z,13.65
2018-06-15T20:30:52.023Z,11.73
2018-06-15T20:33:19.652Z,19.42
2018-06-15T20:35:47.214Z,13.00
2018-06-15T20:38:15.559Z,12.50
2018-06-15T20:40:43.214Z,12.78
2018-06-15T20:43:10.855Z,11.33
2018-06-15T20:45:38.440Z,12.95
2018-06-15T20:48:06.057Z,14.63
2018-06-15T20:50:33.654Z,11.22
2018-06-15T20:53:01.260Z,16.23
2018-06-15T20:55:28.994Z,11.30
2018-06-15T20:57:56.678Z,11.95
2018-06-15T21:00:24.251Z,14.80
2018-06-15T21:02:51.818Z,12.68
2018-06-15T21:05:19.434Z,12.65
2018-06-15T21:07:48.018Z,13.65
2018-06-15T21:10:15.626Z,14.75
2018-06-15T21:12:43.227Z,14.30
2018-06-15T21:15:10.838Z,12.18
2018-06-15T21:17:38.466Z,14.70
2018-06-15T21:20:06.030Z,15.90
2018-06-15T21:22:33.590Z,14.73
2018-06-15T21:25:01.193Z,13.65
2018-06-15T21:27:28.988Z,12.98
2018-06-15T21:29:56.669Z,15.32
2018-06-15T21:32:24.312Z,18.37
2018-06-15T21:34:51.878Z,12.30
2018-06-15T21:37:19.437Z,13.62
2018-06-15T21:39:47.038Z,14.40
2018-06-15T21:42:14.610Z,14.20
2018-06-15T21:44:42.226Z,16.62
2018-06-15T21:47:09.819Z,16.12
2018-06-15T21:49:37.411Z,16.80
2018-06-15T21:52:04.983Z,14.47
2018-06-15T21:54:32.582Z,14.65
2018-06-15T21:57:00.956Z,14.95
2018-06-15T21:59:28.938Z,15.45
2018-06-15T22:01:56.660Z,17.48
2018-06-15T22:04:25.326Z,17.30
2018-06-15T22:06:52.948Z,15.72
2018-06-15T22:09:20.559Z,16.70
2018-06-15T22:11:48.249Z,16.70
2018-06-15T22:14:16.906Z,14.20
2018-06-15T22:16:51.799Z,16.62
2018-06-15T22:19:21.351Z,16.40
2018-06-15T22:21:49.212Z,12.80
2018-06-15T22:24:16.819Z,13.32
2018-06-15T22:26:44.563Z,13.85
2018-06-15T22:29:12.135Z,16.05
2018-06-15T22:31:39.896Z,13.40
2018-06-15T22:34:07.478Z,12.68
2018-06-15T22:36:35.329Z,14.10
2018-06-15T22:39:03.059Z,11.55
2018-06-15T22:41:30.642Z,13.48
2018-06-15T22:43:58.275Z,12.68
2018-06-15T22:46:25.966Z,16.12
2018-06-15T22:48:53.546Z,13.22
2018-06-15T22:51:21.126Z,13.30
2018-06-15T22:53:48.738Z,12.20
2018-06-15T22:56:16.306Z,15.75
2018-06-15T22:58:44.236Z,15.03
2018-06-15T23:01:11.818Z,13.40
2018-06-15T23:03:39.394Z,12.58
2018-06-15T23:06:06.975Z,16.77
2018-06-15T23:08:34.635Z,12.60
2018-06-15T23:11:02.220Z,11.22
2018-06-15T23:13:29.823Z,13.43
2018-06-15T23:15:57.674Z,10.98
2018-06-15T23:18:25.243Z,10.78
2018-06-15T23:20:52.840Z,18.10
2018-06-15T23:23:20.434Z,14.65
2018-06-15T23:25:48.013Z,14.40
2018-06-15T23:28:15.653Z,12.63
2018-06-15T23:30:43.259Z,13.75
2018-06-15T23:33:10.822Z,11.70
2018-06-15T23:35:38.476Z,12.78
2018-06-15T23:38:06.104Z,11.12
2018-06-15T23:40:33.702Z,11.70
2018-06-15T23:43:01.319Z,12.73
2018-06-15T23:45:28.879Z,11.40
2018-06-15T23:47:56.522Z,16.02
2018-06-15T23:50:24.091Z,14.23
2018-06-15T23:52:52.187Z,13.83
2018-06-15T23:55:20.117Z,10.80
2018-06-15T23:57:47.694Z,11.80
